sensor_id;sensor_type;location;lat;lon;timestamp;pressure;altitude;pressure_sealevel;temperature;humidity
65190;BME280;51777;53.570;9.984;2023-04-26T00:01:40;101164.25;;;4.84;100.00
65190;BME280;51777;53.570;9.984;2023-04-26T00:04:06;101162.59;;;4.83;100.00
65190;BME280;51777;53.570;9.984;2023-04-26T00:06:33;101162.69;;;4.81;100.00
65190;BME280;51777;53.570;9.984;2023-04-26T00:08:59;101166.84;;;4.69;100.00
65190;BME280;51777;53.570;9.984;2023-04-26T00:11:24;101165.03;;;4.71;100.00
65190;BME280;51777;53.570;9.984;2023-04-26T00:13:50;101170.78;;;4.75;100.00
65190;BME280;51777;53.570;9.984;2023-04-26T00:16:15;101172.72;;;4.71;100.00
65190;BME280;51777;53.570;9.984;2023-04-26T00:18:42;101172.06;;;4.68;100.00
65190;BME280;51777;53.570;9.984;2023-04-26T00:21:08;101173.59;;;4.70;100.00
65190;BME280;51777;53.570;9.984;2023-04-26T00:23:34;101193.31;;;4.83;100.00
65190;BME280;51777;53.570;9.984;2023-04-26T00:26:01;101185.38;;;4.87;100.00
65190;BME280;51777;53.570;9.984;2023-04-26T00:28:28;101187.63;;;4.92;100.00
65190;BME280;51777;53.570;9.984;2023-04-26T00:30:53;101184.78;;;4.96;100.00
65190;BME280;51777;53.570;9.984;2023-04-26T00:33:22;101184.56;;;4.99;100.00
65190;BME280;51777;53.570;9.984;2023-04-26T00:35:47;101190.31;;;5.03;100.00
65190;BME280;51777;53.570;9.984;2023-04-26T00:38:13;101183.78;;;5.12;100.00
65190;BME280;51777;53.570;9.984;2023-04-26T00:40:38;101189.72;;;5.12;100.00
65190;BME280;51777;53.570;9.984;2023-04-26T00:43:05;101183.84;;;4.97;100.00
65190;BME280;51777;53.570;9.984;2023-04-26T00:45:30;101173.03;;;4.80;100.00
65190;BME280;51777;53.570;9.984;2023-04-26T00:47:57;101174.44;;;4.71;100.00
65190;BME280;51777;53.570;9.984;2023-04-26T00:50:25;101171.44;;;4.64;100.00
65190;BME280;51777;53.570;9.984;2023-04-26T00:52:51;101182.22;;;4.69;100.00
65190;BME280;51777;53.570;9.984;2023-04-26T00:55:17;101173.91;;;4.66;100.00
65190;BME280;51777;53.570;9.984;2023-04-26T00:57:44;101171.53;;;4.63;100.00
65190;BME280;51777;53.570;9.984;2023-04-26T01:00:10;101179.31;;;4.61;100.00
65190;BME280;51777;53.570;9.984;2023-04-26T01:02:36;101170.31;;;4.68;100.00
65190;BME280;51777;53.570;9.984;2023-04-26T01:05:03;101180.97;;;4.62;100.00
65190;BME280;51777;53.570;9.984;2023-04-26T01:07:29;101169.25;;;4.58;100.00
65190;BME280;51777;53.570;9.984;2023-04-26T01:09:56;101180.72;;;4.53;100.00
65190;BME280;51777;53.570;9.984;2023-04-26T01:12:23;101177.38;;;4.38;100.00
65190;BME280;51777;53.570;9.984;2023-04-26T01:14:48;101170.06;;;4.32;100.00
65190;BME280;51777;53.570;9.984;2023-04-26T01:17:14;101179.16;;;4.23;100.00
65190;BME280;51777;53.570;9.984;2023-04-26T01:19:49;101175.66;;;4.24;100.00
65190;BME280;51777;53.570;9.984;2023-04-26T01:22:15;101183.81;;;4.17;100.00
65190;BME280;51777;53.570;9.984;2023-04-26T01:24:46;101188.19;;;4.15;100.00
65190;BME280;51777;53.570;9.984;2023-04-26T01:27:13;101184.81;;;4.14;100.00
65190;BME280;51777;53.570;9.984;2023-04-26T01:29:38;101187.66;;;4.09;100.00
65190;BME280;51777;53.570;9.984;2023-04-26T01:32:04;101186.19;;;4.05;100.00
65190;BME280;51777;53.570;9.984;2023-04-26T01:34:29;101187.19;;;4.03;100.00
65190;BME280;51777;53.570;9.984;2023-04-26T01:36:57;101189.84;;;4.01;100.00
65190;BME280;51777;53.570;9.984;2023-04-26T01:39:22;101202.00;;;3.98;100.00
65190;BME280;51777;53.570;9.984;2023-04-26T01:41:48;101198.25;;;4.03;100.00
65190;BME280;51777;53.570;9.984;2023-04-26T01:44:13;101191.59;;;4.01;100.00
65190;BME280;51777;53.570;9.984;2023-04-26T01:46:38;101184.94;;;3.98;100.00
65190;BME280;51777;53.570;9.984;2023-04-26T01:49:04;101191.69;;;3.99;100.00
65190;BME280;51777;53.570;9.984;2023-04-26T01:51:29;101194.16;;;4.01;100.00
65190;BME280;51777;53.570;9.984;2023-04-26T01:53:55;101187.56;;;3.97;100.00
65190;BME280;51777;53.570;9.984;2023-04-26T01:56:22;101194.50;;;3.95;100.00
65190;BME280;51777;53.570;9.984;2023-04-26T01:58:48;101189.38;;;3.95;100.00
65190;BME280;51777;53.570;9.984;2023-04-26T02:01:13;101187.75;;;3.94;100.00
65190;BME280;51777;53.570;9.984;2023-04-26T02:03:39;101187.84;;;3.92;100.00
65190;BME280;51777;53.570;9.984;2023-04-26T02:06:04;101193.69;;;3.94;100.00
65190;BME280;51777;53.570;9.984;2023-04-26T02:08:30;101187.31;;;3.87;100.00
65190;BME280;51777;53.570;9.984;2023-04-26T02:10:55;101193.69;;;3.94;100.00
65190;BME280;51777;53.570;9.984;2023-04-26T02:13:21;101189.22;;;3.98;100.00
65190;BME280;51777;53.570;9.984;2023-04-26T02:15:47;101211.03;;;4.03;100.00
65190;BME280;51777;53.570;9.984;2023-04-26T02:18:13;101226.78;;;4.11;100.00
65190;BME280;51777;53.570;9.984;2023-04-26T02:20:42;101220.00;;;4.10;100.00
65190;BME280;51777;53.570;9.984;2023-04-26T02:23:09;101230.25;;;4.10;100.00
65190;BME280;51777;53.570;9.984;2023-04-26T02:25:35;101227.13;;;4.05;100.00
65190;BME280;51777;53.570;9.984;2023-04-26T02:28:01;101234.06;;;4.03;100.00
65190;BME280;51777;53.570;9.984;2023-04-26T02:30:26;101224.38;;;3.94;100.00
65190;BME280;51777;53.570;9.984;2023-04-26T02:32:55;101222.81;;;3.92;100.00
65190;BME280;51777;53.570;9.984;2023-04-26T02:35:21;101217.19;;;3.87;100.00
65190;BME280;51777;53.570;9.984;2023-04-26T02:37:47;101206.38;;;3.81;100.00
65190;BME280;51777;53.570;9.984;2023-04-26T02:40:20;101203.66;;;3.85;100.00
65190;BME280;51777;53.570;9.984;2023-04-26T02:42:45;101198.34;;;3.88;100.00
65190;BME280;51777;53.570;9.984;2023-04-26T02:45:11;101203.47;;;3.88;100.00
65190;BME280;51777;53.570;9.984;2023-04-26T02:47:37;101206.13;;;3.86;100.00
65190;BME280;51777;53.570;9.984;2023-04-26T02:50:07;101204.53;;;3.83;100.00
65190;BME280;51777;53.570;9.984;2023-04-26T02:52:34;101204.81;;;3.79;100.00
65190;BME280;51777;53.570;9.984;2023-04-26T02:55:00;101197.88;;;3.81;100.00
65190;BME280;51777;53.570;9.984;2023-04-26T02:57:26;101203.00;;;3.81;100.00
65190;BME280;51777;53.570;9.984;2023-04-26T02:59:52;101193.16;;;3.75;100.00
65190;BME280;51777;53.570;9.984;2023-04-26T03:02:17;101190.59;;;3.75;100.00
65190;BME280;51777;53.570;9.984;2023-04-26T03:04:42;101196.78;;;3.71;100.00
65190;BME280;51777;53.570;9.984;2023-04-26T03:07:08;101200.53;;;3.65;100.00
65190;BME280;51777;53.570;9.984;2023-04-26T03:09:33;101207.00;;;3.71;100.00
65190;BME280;51777;53.570;9.984;2023-04-26T03:11:59;101205.25;;;3.71;100.00
65190;BME280;51777;53.570;9.984;2023-04-26T03:14:24;101202.16;;;3.66;100.00
65190;BME280;51777;53.570;9.984;2023-04-26T03:16:51;101206.81;;;3.60;100.00
65190;BME280;51777;53.570;9.984;2023-04-26T03:19:17;101196.75;;;3.57;100.00
65190;BME280;51777;53.570;9.984;2023-04-26T03:21:43;101202.78;;;3.56;100.00
65190;BME280;51777;53.570;9.984;2023-04-26T03:24:09;101194.66;;;3.49;100.00
65190;BME280;51777;53.570;9.984;2023-04-26T03:26:35;101202.06;;;3.53;100.00
65190;BME280;51777;53.570;9.984;2023-04-26T03:29:01;101196.03;;;3.54;100.00
65190;BME280;51777;53.570;9.984;2023-04-26T03:31:27;101196.56;;;3.60;100.00
65190;BME280;51777;53.570;9.984;2023-04-26T03:33:52;101195.69;;;3.61;100.00
65190;BME280;51777;53.570;9.984;2023-04-26T03:36:18;101197.34;;;3.62;100.00
65190;BME280;51777;53.570;9.984;2023-04-26T03:38:43;101194.03;;;3.60;100.00
65190;BME280;51777;53.570;9.984;2023-04-26T03:41:09;101200.03;;;3.59;100.00
65190;BME280;51777;53.570;9.984;2023-04-26T03:43:34;101200.97;;;3.58;100.00
65190;BME280;51777;53.570;9.984;2023-04-26T03:46:00;101192.94;;;3.64;100.00
65190;BME280;51777;53.570;9.984;2023-04-26T03:48:25;101198.69;;;3.67;100.00
65190;BME280;51777;53.570;9.984;2023-04-26T03:50:52;101198.78;;;3.66;100.00
65190;BME280;51777;53.570;9.984;2023-04-26T03:53:17;101196.72;;;3.72;100.00
65190;BME280;51777;53.570;9.984;2023-04-26T03:55:46;101195.69;;;3.75;100.00
65190;BME280;51777;53.570;9.984;2023-04-26T03:58:11;101197.16;;;3.65;100.00
65190;BME280;51777;53.570;9.984;2023-04-26T04:00:39;101202.25;;;3.65;100.00
65190;BME280;51777;53.570;9.984;2023-04-26T04:03:08;101204.09;;;3.63;100.00
65190;BME280;51777;53.570;9.984;2023-04-26T04:05:33;101204.91;;;3.63;100.00
65190;BME280;51777;53.570;9.984;2023-04-26T04:07:59;101203.50;;;3.58;100.00
65190;BME280;51777;53.570;9.984;2023-04-26T04:10:25;101212.28;;;3.53;100.00
65190;BME280;51777;53.570;9.984;2023-04-26T04:12:51;101203.97;;;3.50;100.00
65190;BME280;51777;53.570;9.984;2023-04-26T04:15:18;101207.16;;;3.53;100.00
65190;BME280;51777;53.570;9.984;2023-04-26T04:17:44;101209.34;;;3.60;100.00
65190;BME280;51777;53.570;9.984;2023-04-26T04:20:10;101210.03;;;3.63;100.00
65190;BME280;51777;53.570;9.984;2023-04-26T04:22:36;101216.47;;;3.54;100.00
65190;BME280;51777;53.570;9.984;2023-04-26T04:25:07;101208.38;;;3.62;100.00
65190;BME280;51777;53.570;9.984;2023-04-26T04:27:33;101209.34;;;3.60;100.00
65190;BME280;51777;53.570;9.984;2023-04-26T04:29:58;101207.72;;;3.59;100.00
65190;BME280;51777;53.570;9.984;2023-04-26T04:32:28;101215.97;;;3.64;100.00
65190;BME280;51777;53.570;9.984;2023-04-26T04:34:53;101211.19;;;3.58;100.00
65190;BME280;51777;53.570;9.984;2023-04-26T04:37:18;101225.63;;;3.59;100.00
65190;BME280;51777;53.570;9.984;2023-04-26T04:39:45;101225.78;;;3.56;100.00
65190;BME280;51777;53.570;9.984;2023-04-26T04:42:10;101228.16;;;3.59;100.00
65190;BME280;51777;53.570;9.984;2023-04-26T04:44:36;101230.09;;;3.69;100.00
65190;BME280;51777;53.570;9.984;2023-04-26T04:47:02;101241.34;;;3.67;100.00
65190;BME280;51777;53.570;9.984;2023-04-26T04:49:28;101235.06;;;3.72;100.00
65190;BME280;51777;53.570;9.984;2023-04-26T04:51:55;101236.63;;;3.75;100.00
65190;BME280;51777;53.570;9.984;2023-04-26T04:54:21;101245.22;;;3.88;100.00
65190;BME280;51777;53.570;9.984;2023-04-26T04:56:47;101241.28;;;3.97;100.00
65190;BME280;51777;53.570;9.984;2023-04-26T04:59:12;101239.91;;;4.05;100.00
65190;BME280;51777;53.570;9.984;2023-04-26T05:01:38;101237.63;;;4.15;100.00
65190;BME280;51777;53.570;9.984;2023-04-26T05:04:04;101235.34;;;4.25;100.00
65190;BME280;51777;53.570;9.984;2023-04-26T05:06:30;101236.63;;;4.18;100.00
65190;BME280;51777;53.570;9.984;2023-04-26T05:08:59;101231.31;;;4.21;100.00
65190;BME280;51777;53.570;9.984;2023-04-26T05:11:25;101236.63;;;4.18;100.00
65190;BME280;51777;53.570;9.984;2023-04-26T05:13:51;101232.78;;;4.25;100.00
65190;BME280;51777;53.570;9.984;2023-04-26T05:16:16;101230.75;;;4.30;100.00
65190;BME280;51777;53.570;9.984;2023-04-26T05:18:42;101219.81;;;4.28;100.00
65190;BME280;51777;53.570;9.984;2023-04-26T05:21:07;101230.41;;;4.36;100.00
65190;BME280;51777;53.570;9.984;2023-04-26T05:23:33;101230.13;;;4.26;100.00
65190;BME280;51777;53.570;9.984;2023-04-26T05:26:05;101231.50;;;4.32;100.00
65190;BME280;51777;53.570;9.984;2023-04-26T05:28:32;101238.44;;;4.30;100.00
65190;BME280;51777;53.570;9.984;2023-04-26T05:30:58;101239.75;;;4.23;100.00
65190;BME280;51777;53.570;9.984;2023-04-26T05:33:24;101241.00;;;4.30;100.00
65190;BME280;51777;53.570;9.984;2023-04-26T05:35:50;101244.94;;;4.35;100.00
65190;BME280;51777;53.570;9.984;2023-04-26T05:38:18;101248.13;;;4.39;100.00
65190;BME280;51777;53.570;9.984;2023-04-26T05:40:44;101253.84;;;4.57;100.00
65190;BME280;51777;53.570;9.984;2023-04-26T05:43:09;101253.38;;;4.79;100.00
65190;BME280;51777;53.570;9.984;2023-04-26T05:45:35;101254.03;;;4.95;100.00
65190;BME280;51777;53.570;9.984;2023-04-26T05:48:00;101271.78;;;5.25;100.00
65190;BME280;51777;53.570;9.984;2023-04-26T05:50:25;101262.28;;;5.40;100.00
65190;BME280;51777;53.570;9.984;2023-04-26T05:52:51;101267.06;;;5.31;100.00
65190;BME280;51777;53.570;9.984;2023-04-26T05:55:16;101263.56;;;5.20;100.00
65190;BME280;51777;53.570;9.984;2023-04-26T05:57:44;101265.66;;;5.27;100.00
65190;BME280;51777;53.570;9.984;2023-04-26T06:00:11;101265.16;;;5.35;100.00
65190;BME280;51777;53.570;9.984;2023-04-26T06:02:38;101262.81;;;5.45;100.00
65190;BME280;51777;53.570;9.984;2023-04-26T06:05:04;101274.66;;;5.60;100.00
65190;BME280;51777;53.570;9.984;2023-04-26T06:07:31;101265.81;;;5.51;100.00
65190;BME280;51777;53.570;9.984;2023-04-26T06:09:56;101264.13;;;5.38;100.00
65190;BME280;51777;53.570;9.984;2023-04-26T06:12:22;101275.13;;;5.52;100.00
65190;BME280;51777;53.570;9.984;2023-04-26T06:14:47;101261.38;;;5.41;100.00
65190;BME280;51777;53.570;9.984;2023-04-26T06:17:12;101269.66;;;5.44;100.00
65190;BME280;51777;53.570;9.984;2023-04-26T06:19:38;101268.19;;;5.67;100.00
65190;BME280;51777;53.570;9.984;2023-04-26T06:22:03;101268.84;;;5.83;100.00
65190;BME280;51777;53.570;9.984;2023-04-26T06:24:29;101262.13;;;5.68;100.00
65190;BME280;51777;53.570;9.984;2023-04-26T06:26:54;101257.53;;;5.73;100.00
65190;BME280;51777;53.570;9.984;2023-04-26T06:29:20;101257.31;;;5.89;100.00
65190;BME280;51777;53.570;9.984;2023-04-26T06:31:46;101261.44;;;5.92;100.00
65190;BME280;51777;53.570;9.984;2023-04-26T06:34:11;101265.53;;;6.19;100.00
65190;BME280;51777;53.570;9.984;2023-04-26T06:36:36;101262.59;;;6.13;100.00
65190;BME280;51777;53.570;9.984;2023-04-26T06:39:02;101265.88;;;6.15;100.00
65190;BME280;51777;53.570;9.984;2023-04-26T06:41:28;101269.56;;;6.24;100.00
65190;BME280;51777;53.570;9.984;2023-04-26T06:43:53;101264.31;;;6.25;100.00
65190;BME280;51777;53.570;9.984;2023-04-26T06:46:20;101270.66;;;6.32;100.00
65190;BME280;51777;53.570;9.984;2023-04-26T06:48:45;101263.72;;;6.22;100.00
65190;BME280;51777;53.570;9.984;2023-04-26T06:51:11;101263.16;;;6.42;100.00
65190;BME280;51777;53.570;9.984;2023-04-26T06:53:37;101273.31;;;6.43;100.00
65190;BME280;51777;53.570;9.984;2023-04-26T06:56:02;101277.19;;;6.62;100.00
65190;BME280;51777;53.570;9.984;2023-04-26T06:58:28;101275.47;;;6.86;100.00
65190;BME280;51777;53.570;9.984;2023-04-26T07:00:53;101272.47;;;6.56;100.00
65190;BME280;51777;53.570;9.984;2023-04-26T07:03:19;101275.84;;;6.93;100.00
65190;BME280;51777;53.570;9.984;2023-04-26T07:05:45;101281.28;;;7.01;100.00
65190;BME280;51777;53.570;9.984;2023-04-26T07:08:10;101289.75;;;6.90;100.00
65190;BME280;51777;53.570;9.984;2023-04-26T07:10:36;101282.38;;;7.10;100.00
65190;BME280;51777;53.570;9.984;2023-04-26T07:13:03;101277.66;;;7.03;100.00
65190;BME280;51777;53.570;9.984;2023-04-26T07:15:29;101289.41;;;7.19;100.00
65190;BME280;51777;53.570;9.984;2023-04-26T07:17:56;101278.38;;;7.29;100.00
65190;BME280;51777;53.570;9.984;2023-04-26T07:20:23;101284.91;;;7.69;100.00
65190;BME280;51777;53.570;9.984;2023-04-26T07:22:49;101281.66;;;7.78;100.00
65190;BME280;51777;53.570;9.984;2023-04-26T07:25:16;101287.50;;;7.69;100.00
65190;BME280;51777;53.570;9.984;2023-04-26T07:27:44;101285.84;;;7.68;100.00
65190;BME280;51777;53.570;9.984;2023-04-26T07:30:11;101297.81;;;7.80;100.00
65190;BME280;51777;53.570;9.984;2023-04-26T07:32:37;101297.84;;;7.45;100.00
65190;BME280;51777;53.570;9.984;2023-04-26T07:35:06;101300.28;;;7.35;100.00
65190;BME280;51777;53.570;9.984;2023-04-26T07:37:38;101296.53;;;7.39;100.00
65190;BME280;51777;53.570;9.984;2023-04-26T07:40:03;101299.06;;;7.63;100.00
65190;BME280;51777;53.570;9.984;2023-04-26T07:42:30;101293.38;;;7.71;100.00
65190;BME280;51777;53.570;9.984;2023-04-26T07:44:55;101300.22;;;8.28;100.00
65190;BME280;51777;53.570;9.984;2023-04-26T07:47:21;101301.41;;;8.23;100.00
65190;BME280;51777;53.570;9.984;2023-04-26T07:49:46;101310.84;;;9.01;100.00
65190;BME280;51777;53.570;9.984;2023-04-26T07:52:16;101308.50;;;8.98;100.00
65190;BME280;51777;53.570;9.984;2023-04-26T07:54:44;101312.63;;;8.78;100.00
65190;BME280;51777;53.570;9.984;2023-04-26T07:57:10;101303.28;;;8.21;100.00
65190;BME280;51777;53.570;9.984;2023-04-26T07:59:36;101313.97;;;7.71;100.00
65190;BME280;51777;53.570;9.984;2023-04-26T08:02:01;101362.47;;;7.64;100.00
65190;BME280;51777;53.570;9.984;2023-04-26T08:04:31;101359.59;;;7.21;100.00
65190;BME280;51777;53.570;9.984;2023-04-26T08:06:58;101351.19;;;7.06;100.00
65190;BME280;51777;53.570;9.984;2023-04-26T08:09:24;101339.47;;;7.02;100.00
65190;BME280;51777;53.570;9.984;2023-04-26T08:11:49;101341.38;;;7.24;100.00
65190;BME280;51777;53.570;9.984;2023-04-26T08:14:16;101337.63;;;7.28;100.00
65190;BME280;51777;53.570;9.984;2023-04-26T08:16:43;101346.41;;;7.49;100.00
65190;BME280;51777;53.570;9.984;2023-04-26T08:19:08;101343.28;;;7.33;100.00
65190;BME280;51777;53.570;9.984;2023-04-26T08:21:35;101345.69;;;7.23;100.00
65190;BME280;51777;53.570;9.984;2023-04-26T08:24:00;101338.25;;;7.66;100.00
65190;BME280;51777;53.570;9.984;2023-04-26T08:26:26;101342.75;;;8.22;100.00
65190;BME280;51777;53.570;9.984;2023-04-26T08:28:51;101346.38;;;8.19;100.00
65190;BME280;51777;53.570;9.984;2023-04-26T08:31:16;101349.34;;;8.60;100.00
65190;BME280;51777;53.570;9.984;2023-04-26T08:33:42;101356.81;;;9.39;100.00
65190;BME280;51777;53.570;9.984;2023-04-26T08:36:07;101358.66;;;10.43;100.00
65190;BME280;51777;53.570;9.984;2023-04-26T08:38:33;101352.97;;;10.28;100.00
65190;BME280;51777;53.570;9.984;2023-04-26T08:40:58;101353.03;;;10.38;100.00
65190;BME280;51777;53.570;9.984;2023-04-26T08:43:32;101365.19;;;14.04;100.00
65190;BME280;51777;53.570;9.984;2023-04-26T08:46:00;101381.72;;;18.43;100.00
65190;BME280;51777;53.570;9.984;2023-04-26T08:48:27;101395.84;;;19.65;100.00
65190;BME280;51777;53.570;9.984;2023-04-26T08:50:58;101395.66;;;19.94;100.00
65190;BME280;51777;53.570;9.984;2023-04-26T08:53:25;101395.06;;;20.27;100.00
65190;BME280;51777;53.570;9.984;2023-04-26T08:55:53;101403.50;;;23.47;100.00
65190;BME280;51777;53.570;9.984;2023-04-26T08:58:19;101409.41;;;22.59;99.77
65190;BME280;51777;53.570;9.984;2023-04-26T09:00:45;101380.22;;;19.35;100.00
65190;BME280;51777;53.570;9.984;2023-04-26T09:03:11;101362.66;;;15.39;100.00
65190;BME280;51777;53.570;9.984;2023-04-26T09:05:40;101368.47;;;16.30;100.00
65190;BME280;51777;53.570;9.984;2023-04-26T09:08:13;101375.22;;;17.72;100.00
65190;BME280;51777;53.570;9.984;2023-04-26T09:10:40;101383.50;;;19.44;100.00
65190;BME280;51777;53.570;9.984;2023-04-26T09:13:06;101363.25;;;17.54;100.00
65190;BME280;51777;53.570;9.984;2023-04-26T09:15:32;101365.22;;;14.38;100.00
65190;BME280;51777;53.570;9.984;2023-04-26T09:18:23;101353.47;;;13.11;100.00
65190;BME280;51777;53.570;9.984;2023-04-26T09:21:16;101372.72;;;15.25;100.00
65190;BME280;51777;53.570;9.984;2023-04-26T09:24:00;101376.06;;;17.26;100.00
65190;BME280;51777;53.570;9.984;2023-04-26T09:26:29;101375.75;;;18.19;100.00
65190;BME280;51777;53.570;9.984;2023-04-26T09:31:43;101375.81;;;15.37;100.00
65190;BME280;51777;53.570;9.984;2023-04-26T09:34:13;101359.53;;;13.47;100.00
65190;BME280;51777;53.570;9.984;2023-04-26T09:39:13;101363.50;;;13.06;100.00
65190;BME280;51777;53.570;9.984;2023-04-26T09:41:44;101378.28;;;16.76;100.00
65190;BME280;51777;53.570;9.984;2023-04-26T09:44:20;101377.72;;;16.41;100.00
65190;BME280;51777;53.570;9.984;2023-04-26T09:47:07;101391.31;;;18.51;100.00
65190;BME280;51777;53.570;9.984;2023-04-26T09:49:47;101399.69;;;20.53;97.32
65190;BME280;51777;53.570;9.984;2023-04-26T09:52:16;101399.59;;;22.21;95.97
65190;BME280;51777;53.570;9.984;2023-04-26T09:54:45;101398.78;;;21.81;94.77
65190;BME280;51777;53.570;9.984;2023-04-26T09:57:14;101400.00;;;22.76;95.21
65190;BME280;51777;53.570;9.984;2023-04-26T09:59:47;101393.41;;;19.06;99.12
65190;BME280;51777;53.570;9.984;2023-04-26T10:02:20;101367.28;;;16.88;100.00
65190;BME280;51777;53.570;9.984;2023-04-26T10:04:49;101357.41;;;15.22;100.00
65190;BME280;51777;53.570;9.984;2023-04-26T10:07:17;101374.78;;;14.29;100.00
65190;BME280;51777;53.570;9.984;2023-04-26T10:09:43;101382.13;;;14.08;100.00
65190;BME280;51777;53.570;9.984;2023-04-26T10:12:10;101391.25;;;12.78;100.00
65190;BME280;51777;53.570;9.984;2023-04-26T10:14:35;101377.13;;;11.19;100.00
65190;BME280;51777;53.570;9.984;2023-04-26T10:17:04;101371.47;;;10.24;100.00
65190;BME280;51777;53.570;9.984;2023-04-26T10:19:32;101380.09;;;10.34;100.00
65190;BME280;51777;53.570;9.984;2023-04-26T10:22:07;101388.25;;;11.00;100.00
65190;BME280;51777;53.570;9.984;2023-04-26T10:24:34;101391.75;;;11.97;100.00
65190;BME280;51777;53.570;9.984;2023-04-26T10:27:01;101376.44;;;11.17;100.00
65190;BME280;51777;53.570;9.984;2023-04-26T10:32:19;101389.19;;;15.42;100.00
65190;BME280;51777;53.570;9.984;2023-04-26T10:35:08;101393.25;;;14.18;100.00
65190;BME280;51777;53.570;9.984;2023-04-26T10:37:35;101391.47;;;14.79;100.00
65190;BME280;51777;53.570;9.984;2023-04-26T10:40:23;101388.38;;;16.23;100.00
65190;BME280;51777;53.570;9.984;2023-04-26T10:42:48;101389.88;;;17.12;100.00
65190;BME280;51777;53.570;9.984;2023-04-26T10:45:26;101395.97;;;15.11;100.00
65190;BME280;51777;53.570;9.984;2023-04-26T10:48:13;101383.84;;;16.01;100.00
65190;BME280;51777;53.570;9.984;2023-04-26T10:53:33;101381.22;;;13.99;100.00
65190;BME280;51777;53.570;9.984;2023-04-26T10:59:11;101396.63;;;11.62;100.00
65190;BME280;51777;53.570;9.984;2023-04-26T11:01:39;101395.81;;;11.61;100.00
65190;BME280;51777;53.570;9.984;2023-04-26T11:04:09;101393.94;;;11.54;100.00
65190;BME280;51777;53.570;9.984;2023-04-26T11:06:54;101393.34;;;11.50;100.00
65190;BME280;51777;53.570;9.984;2023-04-26T11:09:35;101387.91;;;11.34;100.00
65190;BME280;51777;53.570;9.984;2023-04-26T11:12:24;101385.28;;;11.14;100.00
65190;BME280;51777;53.570;9.984;2023-04-26T11:14:50;101389.25;;;11.38;100.00
65190;BME280;51777;53.570;9.984;2023-04-26T11:17:18;101381.88;;;11.24;100.00
65190;BME280;51777;53.570;9.984;2023-04-26T11:19:46;101384.38;;;11.73;100.00
65190;BME280;51777;53.570;9.984;2023-04-26T11:22:12;101380.56;;;12.07;100.00
65190;BME280;51777;53.570;9.984;2023-04-26T11:24:38;101383.59;;;11.83;100.00
65190;BME280;51777;53.570;9.984;2023-04-26T11:27:08;101381.00;;;10.94;100.00
65190;BME280;51777;53.570;9.984;2023-04-26T11:29:34;101379.22;;;10.85;100.00
65190;BME280;51777;53.570;9.984;2023-04-26T11:32:00;101382.16;;;11.21;100.00
65190;BME280;51777;53.570;9.984;2023-04-26T11:36:58;101373.47;;;11.99;100.00
65190;BME280;51777;53.570;9.984;2023-04-26T11:39:24;101384.03;;;12.34;100.00
65190;BME280;51777;53.570;9.984;2023-04-26T11:41:58;101380.97;;;11.73;100.00
65190;BME280;51777;53.570;9.984;2023-04-26T11:44:34;101394.69;;;11.25;100.00
65190;BME280;51777;53.570;9.984;2023-04-26T11:47:01;101391.09;;;10.97;100.00
65190;BME280;51777;53.570;9.984;2023-04-26T11:49:30;101409.13;;;10.78;100.00
65190;BME280;51777;53.570;9.984;2023-04-26T11:51:57;101391.19;;;10.86;100.00
65190;BME280;51777;53.570;9.984;2023-04-26T11:56:56;101397.25;;;12.78;100.00
65190;BME280;51777;53.570;9.984;2023-04-26T11:59:23;101398.13;;;13.95;100.00
65190;BME280;51777;53.570;9.984;2023-04-26T12:01:50;101395.66;;;15.14;100.00
65190;BME280;51777;53.570;9.984;2023-04-26T12:04:17;101400.41;;;15.26;100.00
65190;BME280;51777;53.570;9.984;2023-04-26T12:06:44;101396.63;;;15.21;100.00
65190;BME280;51777;53.570;9.984;2023-04-26T12:09:10;101400.81;;;15.89;100.00
65190;BME280;51777;53.570;9.984;2023-04-26T12:12:09;101393.91;;;16.20;100.00
65190;BME280;51777;53.570;9.984;2023-04-26T12:14:37;101398.22;;;15.64;100.00
65190;BME280;51777;53.570;9.984;2023-04-26T12:17:04;101405.03;;;15.98;100.00
65190;BME280;51777;53.570;9.984;2023-04-26T12:19:37;101407.66;;;15.73;100.00
65190;BME280;51777;53.570;9.984;2023-04-26T12:22:07;101408.31;;;15.83;100.00
65190;BME280;51777;53.570;9.984;2023-04-26T12:24:33;101417.94;;;16.71;100.00
65190;BME280;51777;53.570;9.984;2023-04-26T12:27:05;101415.16;;;17.66;100.00
65190;BME280;51777;53.570;9.984;2023-04-26T12:29:39;101423.34;;;17.40;100.00
65190;BME280;51777;53.570;9.984;2023-04-26T12:32:05;101431.44;;;17.99;100.00
65190;BME280;51777;53.570;9.984;2023-04-26T12:34:33;101412.25;;;17.07;100.00
65190;BME280;51777;53.570;9.984;2023-04-26T12:36:58;101412.78;;;17.79;100.00
65190;BME280;51777;53.570;9.984;2023-04-26T12:39:24;101420.34;;;17.74;100.00
65190;BME280;51777;53.570;9.984;2023-04-26T12:41:50;101423.34;;;16.78;100.00
65190;BME280;51777;53.570;9.984;2023-04-26T12:44:21;101425.28;;;15.88;100.00
65190;BME280;51777;53.570;9.984;2023-04-26T12:46:47;101425.38;;;15.53;100.00
65190;BME280;51777;53.570;9.984;2023-04-26T12:49:13;101428.91;;;15.28;100.00
65190;BME280;51777;53.570;9.984;2023-04-26T12:51:39;101422.34;;;14.65;100.00
65190;BME280;51777;53.570;9.984;2023-04-26T12:54:05;101429.81;;;13.99;100.00
65190;BME280;51777;53.570;9.984;2023-04-26T12:56:51;101430.97;;;13.43;100.00
65190;BME280;51777;53.570;9.984;2023-04-26T12:59:16;101422.63;;;13.12;100.00
65190;BME280;51777;53.570;9.984;2023-04-26T13:01:42;101425.00;;;13.05;100.00
65190;BME280;51777;53.570;9.984;2023-04-26T13:04:10;101429.53;;;14.02;100.00
65190;BME280;51777;53.570;9.984;2023-04-26T13:06:36;101444.91;;;15.57;100.00
65190;BME280;51777;53.570;9.984;2023-04-26T13:09:04;101425.38;;;15.53;100.00